createdAt,value
2019-04-16T00:00:33.307Z,101422.73
2019-04-16T00:02:12.475Z,101421.42
2019-04-16T00:03:17.463Z,101417.97
2019-04-16T00:04:53.608Z,101421.84
2019-04-16T00:06:02.866Z,101423.97
2019-04-16T00:07:26.033Z,101418.77
2019-04-16T00:08:40.428Z,101415.38
2019-04-16T00:10:14.009Z,101421.28
2019-04-16T00:11:37.904Z,101421.83
2019-04-16T00:12:55.911Z,101416.16
2019-04-16T00:14:06.663Z,101417.28
2019-04-16T00:15:11.128Z,101409.67
2019-04-16T00:16:15.892Z,101409.67
2019-04-16T00:17:21.276Z,101410.56
2019-04-16T00:18:26.235Z,101411.70
2019-04-16T00:19:30.716Z,101409.56
2019-04-16T00:20:38.173Z,101405.54
2019-04-16T00:21:56.208Z,101399.19
2019-04-16T00:23:07.262Z,101403.53
2019-04-16T00:24:23.625Z,101403.02
2019-04-16T00:25:28.917Z,101399.14
2019-04-16T00:26:34.807Z,101401.27
2019-04-16T00:27:39.816Z,101398.69
2019-04-16T00:28:44.506Z,101398.64
2019-04-16T00:29:49.897Z,101396.47
2019-04-16T00:30:54.938Z,101398.65
2019-04-16T00:32:07.903Z,101401.53
2019-04-16T00:33:11.440Z,101396.67
2019-04-16T00:34:16.710Z,101392.58
2019-04-16T00:35:21.677Z,101395.98
2019-04-16T00:36:26.676Z,101396.22
2019-04-16T00:37:31.645Z,101389.86
2019-04-16T00:38:40.993Z,101393.12
2019-04-16T00:39:43.229Z,101393.59
2019-04-16T00:40:48.462Z,101392.30
2019-04-16T00:41:53.595Z,101390.20
2019-04-16T00:42:58.881Z,101383.66
2019-04-16T00:44:03.843Z,101389.89
2019-04-16T00:45:08.706Z,101387.78
2019-04-16T00:46:13.949Z,101387.16
2019-04-16T00:47:19.523Z,101389.17
2019-04-16T00:48:24.468Z,101387.91
2019-04-16T00:49:29.437Z,101387.47
2019-04-16T00:50:34.105Z,101384.89
2019-04-16T00:51:38.838Z,101386.60
2019-04-16T00:52:43.736Z,101382.16
2019-04-16T00:53:49.235Z,101381.22
2019-04-16T00:54:54.766Z,101379.13
2019-04-16T00:55:59.452Z,101381.53
2019-04-16T00:57:04.768Z,101378.66
2019-04-16T00:58:09.766Z,101381.86
2019-04-16T00:59:14.191Z,101383.79
2019-04-16T01:00:19.149Z,101380.98
2019-04-16T01:01:23.885Z,101381.67
2019-04-16T01:02:29.207Z,101375.92
2019-04-16T01:03:34.637Z,101382.51
2019-04-16T01:04:39.917Z,101381.71
2019-04-16T01:05:44.885Z,101377.61
2019-04-16T01:06:50.220Z,101376.77
2019-04-16T01:07:55.189Z,101379.90
2019-04-16T01:09:00.294Z,101384.02
2019-04-16T01:10:04.896Z,101379.55
2019-04-16T01:11:09.578Z,101371.62
2019-04-16T01:12:14.681Z,101376.84
2019-04-16T01:13:21.726Z,101376.31
2019-04-16T01:14:26.793Z,101372.02
2019-04-16T01:15:32.806Z,101376.28
2019-04-16T01:16:37.764Z,101369.97
2019-04-16T01:17:42.845Z,101366.48
2019-04-16T01:18:48.212Z,101367.69
2019-04-16T01:19:53.055Z,101368.50
2019-04-16T01:20:58.715Z,101371.64
2019-04-16T01:22:03.406Z,101368.50
2019-04-16T01:23:08.687Z,101368.53
2019-04-16T01:24:13.750Z,101366.65
2019-04-16T01:25:20.293Z,101364.30
2019-04-16T01:26:26.897Z,101356.83
2019-04-16T01:27:34.795Z,101358.02
2019-04-16T01:28:44.536Z,101360.43
2019-04-16T01:29:49.314Z,101353.80
2019-04-16T01:31:16.718Z,101357.06
2019-04-16T01:32:42.688Z,101353.68
2019-04-16T01:34:04.971Z,101356.80
2019-04-16T01:35:27.294Z,101355.98
2019-04-16T01:37:03.290Z,101357.70
2019-04-16T01:38:27.714Z,101346.47
2019-04-16T01:39:29.587Z,101352.42
2019-04-16T01:40:39.978Z,101348.32
2019-04-16T01:41:45.145Z,101348.32
2019-04-16T01:42:54.445Z,101348.37
2019-04-16T01:43:57.894Z,101351.16
2019-04-16T01:45:03.321Z,101347.80
2019-04-16T01:46:08.057Z,101353.59
2019-04-16T01:47:13.274Z,101345.53
2019-04-16T01:48:17.994Z,101343.50
2019-04-16T01:49:22.705Z,101349.13
2019-04-16T01:50:27.962Z,101351.48
2019-04-16T01:51:32.574Z,101348.77
2019-04-16T01:52:37.780Z,101353.12
2019-04-16T01:53:43.251Z,101344.39
2019-04-16T01:54:51.391Z,101341.38
2019-04-16T01:55:56.956Z,101344.89
2019-04-16T01:57:02.994Z,101346.57
2019-04-16T01:58:08.258Z,101336.48
2019-04-16T01:59:13.774Z,101336.64
2019-04-16T02:00:19.186Z,101335.70
2019-04-16T02:01:23.893Z,101333.48
2019-04-16T02:02:28.920Z,101334.23
2019-04-16T02:03:33.874Z,101337.95
2019-04-16T02:04:39.116Z,101334.81
2019-04-16T02:05:44.381Z,101336.67
2019-04-16T02:06:49.359Z,101331.31
2019-04-16T02:07:56.334Z,101333.44
2019-04-16T02:09:02.950Z,101328.33
2019-04-16T02:10:08.063Z,101331.86
2019-04-16T02:11:13.058Z,101324.45
2019-04-16T02:12:18.182Z,101325.28
2019-04-16T02:13:23.418Z,101322.25
2019-04-16T02:14:28.399Z,101327.91
2019-04-16T02:15:33.636Z,101325.73
2019-04-16T02:16:38.902Z,101324.78
2019-04-16T02:17:43.571Z,101327.84
2019-04-16T02:18:48.531Z,101326.75
2019-04-16T02:19:53.363Z,101324.64
2019-04-16T02:20:58.056Z,101322.91
2019-04-16T02:22:02.526Z,101329.19
2019-04-16T02:23:07.797Z,101320.88
2019-04-16T02:24:12.751Z,101323.19
2019-04-16T02:25:20.157Z,101325.41
2019-04-16T02:26:24.982Z,101318.42
2019-04-16T02:27:30.193Z,101320.67
2019-04-16T02:28:35.316Z,101319.85
2019-04-16T02:29:40.252Z,101329.75
2019-04-16T02:30:45.430Z,101324.92
2019-04-16T02:31:51.791Z,101325.41
2019-04-16T02:32:57.151Z,101321.63
2019-04-16T02:34:02.139Z,101321.61
2019-04-16T02:35:07.007Z,101316.13
2019-04-16T02:36:11.978Z,101324.79
2019-04-16T02:37:17.242Z,101324.51
2019-04-16T02:38:22.299Z,101325.41
2019-04-16T02:39:46.567Z,101326.68
2019-04-16T02:40:33.615Z,101320.19
2019-04-16T02:41:38.606Z,101320.52
2019-04-16T02:42:43.665Z,101318.53
2019-04-16T02:43:48.635Z,101323.37
2019-04-16T02:44:53.860Z,101319.55
2019-04-16T02:45:58.957Z,101317.50
2019-04-16T02:47:06.377Z,101313.12
2019-04-16T02:48:15.232Z,101314.98
2019-04-16T02:49:23.167Z,101311.26
2019-04-16T02:50:31.892Z,101310.56
2019-04-16T02:51:43.063Z,101314.23
2019-04-16T02:53:06.547Z,101315.54
2019-04-16T02:54:16.818Z,101312.84
2019-04-16T02:55:44.284Z,101309.30
2019-04-16T02:56:57.777Z,101307.30
2019-04-16T02:58:12.721Z,101314.32
2019-04-16T02:59:22.095Z,101307.08
2019-04-16T03:00:49.170Z,101304.57
2019-04-16T03:02:28.245Z,101308.72
2019-04-16T03:03:38.845Z,101303.20
2019-04-16T03:04:47.912Z,101313.88
2019-04-16T03:05:54.342Z,101310.89
2019-04-16T03:07:02.806Z,101315.66
2019-04-16T03:08:05.983Z,101311.64
2019-04-16T03:09:11.463Z,101318.15
2019-04-16T03:10:16.550Z,101308.02
2019-04-16T03:11:21.804Z,101313.17
2019-04-16T03:12:27.381Z,101310.38
2019-04-16T03:13:32.634Z,101310.45
2019-04-16T03:14:37.639Z,101311.55
2019-04-16T03:16:07.101Z,101307.72
2019-04-16T03:17:23.778Z,101306.84
2019-04-16T03:18:47.535Z,101308.66
2019-04-16T03:19:52.114Z,101313.61
2019-04-16T03:20:57.396Z,101314.91
2019-04-16T03:22:03.332Z,101306.23
2019-04-16T03:23:08.932Z,101307.65
2019-04-16T03:24:13.900Z,101311.78
2019-04-16T03:25:19.566Z,101310.59
2019-04-16T03:26:24.940Z,101311.86
2019-04-16T03:27:29.917Z,101310.67
2019-04-16T03:28:34.906Z,101307.63
2019-04-16T03:29:39.340Z,101300.42
2019-04-16T03:30:44.326Z,101300.48
2019-04-16T03:31:57.375Z,101302.45
2019-04-16T03:32:56.063Z,101307.94
2019-04-16T03:34:00.800Z,101298.95
2019-04-16T03:35:06.027Z,101297.81
2019-04-16T03:36:11.058Z,101293.47
2019-04-16T03:37:15.963Z,101297.08
2019-04-16T03:38:20.623Z,101302.49
2019-04-16T03:39:25.323Z,101297.36
2019-04-16T03:40:30.215Z,101293.01
2019-04-16T03:41:34.911Z,101297.52
2019-04-16T03:42:39.890Z,101299.21
2019-04-16T03:43:44.501Z,101294.05
2019-04-16T03:44:49.126Z,101300.08
2019-04-16T03:45:54.436Z,101296.60
2019-04-16T03:46:59.794Z,101294.16
2019-04-16T03:48:05.171Z,101294.08
2019-04-16T03:49:09.808Z,101295.59
2019-04-16T03:50:14.924Z,101294.27
2019-04-16T03:51:23.411Z,101292.92
2019-04-16T03:52:28.658Z,101297.00
2019-04-16T03:53:33.628Z,101293.96
2019-04-16T03:54:38.335Z,101289.31
2019-04-16T03:55:43.581Z,101289.89
2019-04-16T03:56:48.864Z,101292.39
2019-04-16T03:57:54.294Z,101295.17
2019-04-16T03:58:59.267Z,101290.01
2019-04-16T04:00:03.704Z,101291.33
2019-04-16T04:01:09.243Z,101286.74
2019-04-16T04:02:15.473Z,101285.72
2019-04-16T04:03:25.894Z,101290.46
2019-04-16T04:04:29.264Z,101290.27
2019-04-16T04:05:34.968Z,101284.61
2019-04-16T04:06:40.838Z,101291.21
2019-04-16T04:07:45.876Z,101282.94
2019-04-16T04:08:53.271Z,101288.09
2019-04-16T04:09:58.867Z,101288.16
2019-04-16T04:11:03.549Z,101288.39
2019-04-16T04:12:09.667Z,101282.00
2019-04-16T04:13:18.364Z,101283.61
2019-04-16T04:14:23.534Z,101285.12
2019-04-16T04:15:28.346Z,101289.59
2019-04-16T04:16:34.453Z,101281.52
2019-04-16T04:17:39.608Z,101285.55
2019-04-16T04:18:44.835Z,101285.97
2019-04-16T04:19:49.899Z,101285.36
2019-04-16T04:20:54.902Z,101283.98
2019-04-16T04:21:59.797Z,101284.55
2019-04-16T04:23:04.510Z,101289.30
2019-04-16T04:24:09.505Z,101286.71
2019-04-16T04:25:14.833Z,101285.57
2019-04-16T04:26:19.286Z,101289.25
2019-04-16T04:27:24.301Z,101287.83
2019-04-16T04:28:28.734Z,101284.83
2019-04-16T04:29:35.610Z,101292.98
2019-04-16T04:30:40.990Z,101293.75
2019-04-16T04:31:45.838Z,101289.05
2019-04-16T04:32:50.574Z,101295.83
2019-04-16T04:33:55.552Z,101295.50
2019-04-16T04:35:00.268Z,101294.27
2019-04-16T04:36:05.230Z,101297.56
2019-04-16T04:37:10.239Z,101294.89
2019-04-16T04:38:15.703Z,101298.20
2019-04-16T04:39:20.856Z,101297.17
2019-04-16T04:40:26.090Z,101301.37
2019-04-16T04:41:30.762Z,101295.31
2019-04-16T04:42:36.094Z,101291.84
2019-04-16T04:43:41.542Z,101291.28
2019-04-16T04:44:47.152Z,101289.09
2019-04-16T04:45:52.265Z,101287.87
2019-04-16T04:46:57.211Z,101285.82
2019-04-16T04:48:02.389Z,101283.77
2019-04-16T04:49:07.554Z,101283.55
2019-04-16T04:50:12.549Z,101287.42
2019-04-16T04:51:17.765Z,101288.84
2019-04-16T04:52:23.350Z,101290.15
2019-04-16T04:53:28.036Z,101284.08
2019-04-16T04:54:32.991Z,101288.71
2019-04-16T04:55:37.686Z,101286.94
2019-04-16T04:56:42.638Z,101290.23
2019-04-16T04:57:47.583Z,101287.66
2019-04-16T04:58:52.895Z,101285.37
2019-04-16T04:59:58.067Z,101283.69
2019-04-16T05:01:03.046Z,101289.38
2019-04-16T05:02:10.566Z,101282.69
2019-04-16T05:03:22.707Z,101292.37
2019-04-16T05:04:49.626Z,101289.23
2019-04-16T05:05:56.743Z,101289.75
2019-04-16T05:07:04.842Z,101292.82
2019-04-16T05:08:09.671Z,101289.69
2019-04-16T05:09:15.003Z,101293.44
2019-04-16T05:10:19.997Z,101294.95
2019-04-16T05:11:25.326Z,101293.69
2019-04-16T05:12:30.007Z,101299.05
2019-04-16T05:13:35.305Z,101297.44
2019-04-16T05:14:51.365Z,101300.14
2019-04-16T05:15:58.398Z,101300.87
2019-04-16T05:17:06.061Z,101297.95
2019-04-16T05:18:10.973Z,101296.69
2019-04-16T05:19:16.678Z,101299.40
2019-04-16T05:20:21.408Z,101299.49
2019-04-16T05:21:26.702Z,101301.88
2019-04-16T05:22:33.067Z,101300.82
2019-04-16T05:23:38.342Z,101299.92
2019-04-16T05:24:43.364Z,101299.23
2019-04-16T05:25:48.661Z,101302.58
2019-04-16T05:26:56.268Z,101303.06
2019-04-16T05:28:00.373Z,101308.02
2019-04-16T05:29:16.242Z,101308.08
2019-04-16T05:30:21.062Z,101309.84
2019-04-16T05:31:26.224Z,101308.95
2019-04-16T05:32:34.072Z,101305.02
2019-04-16T05:33:38.409Z,101310.23
2019-04-16T05:34:42.896Z,101310.69
2019-04-16T05:35:48.202Z,101312.39
2019-04-16T05:36:53.766Z,101311.36
2019-04-16T05:37:59.082Z,101313.23
2019-04-16T05:39:05.831Z,101310.75
2019-04-16T05:40:10.645Z,101318.50
2019-04-16T05:41:20.501Z,101316.71
2019-04-16T05:42:26.200Z,101321.73
2019-04-16T05:43:30.304Z,101320.66
2019-04-16T05:44:35.951Z,101319.32
2019-04-16T05:45:40.925Z,101319.75
2019-04-16T05:46:46.879Z,101317.28
2019-04-16T05:47:53.313Z,101318.64
2019-04-16T05:48:58.605Z,101320.92
2019-04-16T05:50:03.337Z,101318.48
2019-04-16T05:51:07.948Z,101315.16
2019-04-16T05:52:12.664Z,101315.26
2019-04-16T05:53:17.898Z,101310.84
2019-04-16T05:54:45.379Z,101313.84
2019-04-16T05:56:07.114Z,101312.48
2019-04-16T05:57:15.671Z,101312.27
2019-04-16T05:58:20.645Z,101305.36
2019-04-16T05:59:25.899Z,101311.93
2019-04-16T06:00:38.566Z,101307.03
2019-04-16T06:01:48.579Z,101307.72
2019-04-16T06:02:53.438Z,101305.91
2019-04-16T06:03:58.450Z,101306.48
2019-04-16T06:05:03.392Z,101298.52
2019-04-16T06:06:08.598Z,101302.17
2019-04-16T06:07:13.819Z,101301.70
2019-04-16T06:08:18.494Z,101303.18
2019-04-16T06:09:23.803Z,101300.31
2019-04-16T06:10:28.243Z,101305.63
2019-04-16T06:11:36.437Z,101300.64
2019-04-16T06:13:04.787Z,101302.56
2019-04-16T06:14:28.087Z,101296.53
2019-04-16T06:15:54.889Z,101300.13
2019-04-16T06:17:12.992Z,101302.42
2019-04-16T06:18:31.117Z,101301.47
2019-04-16T06:19:51.777Z,101304.14
2019-04-16T06:21:06.818Z,101300.78
2019-04-16T06:22:30.389Z,101305.52
2019-04-16T06:23:50.951Z,101305.24
2019-04-16T06:25:13.691Z,101310.92
2019-04-16T06:26:44.498Z,101310.47
2019-04-16T06:28:14.273Z,101304.52
2019-04-16T06:29:57.659Z,101312.93
2019-04-16T06:31:10.043Z,101313.91
2019-04-16T06:32:45.507Z,101301.19
2019-04-16T06:34:08.020Z,101306.43
2019-04-16T06:35:46.997Z,101308.58
2019-04-16T06:37:00.609Z,101311.58
2019-04-16T06:38:23.923Z,101309.97
2019-04-16T06:39:44.920Z,101305.45
2019-04-16T06:41:18.167Z,101308.07
2019-04-16T06:42:27.912Z,101307.28
2019-04-16T06:43:37.303Z,101315.33
2019-04-16T06:44:49.321Z,101309.76
2019-04-16T06:46:12.148Z,101310.55
2019-04-16T06:47:26.525Z,101309.36
2019-04-16T06:48:38.017Z,101311.11
2019-04-16T06:50:01.673Z,101311.60
2019-04-16T06:51:24.143Z,101307.95
2019-04-16T06:52:54.145Z,101308.94
2019-04-16T06:54:18.684Z,101303.63
2019-04-16T06:55:44.270Z,101305.98
2019-04-16T06:57:12.237Z,101301.37
2019-04-16T06:58:50.727Z,101305.52
2019-04-16T07:00:10.168Z,101296.73
2019-04-16T07:01:38.688Z,101302.55
2019-04-16T07:03:02.547Z,101299.38
2019-04-16T07:04:21.113Z,101291.83
2019-04-16T07:06:03.669Z,101288.09
2019-04-16T07:07:39.879Z,101288.09
2019-04-16T07:09:06.272Z,101284.58
2019-04-16T07:10:14.485Z,101271.70
2019-04-16T07:11:19.266Z,101269.70
2019-04-16T07:12:26.557Z,101270.77
2019-04-16T07:13:31.839Z,101271.12
2019-04-16T07:14:37.787Z,101269.30
2019-04-16T07:15:43.707Z,101264.46
2019-04-16T07:16:48.059Z,101264.23
2019-04-16T07:17:53.524Z,101259.96
2019-04-16T07:18:58.838Z,101259.29
2019-04-16T07:20:04.817Z,101260.64
2019-04-16T07:21:09.782Z,101255.22
2019-04-16T07:22:14.475Z,101265.88
2019-04-16T07:23:24.291Z,101255.34
2019-04-16T07:24:30.085Z,101257.53
2019-04-16T07:25:39.709Z,101256.27
2019-04-16T07:26:40.514Z,101254.75
2019-04-16T07:27:58.092Z,101255.06
2019-04-16T07:29:25.210Z,101257.33
2019-04-16T07:30:38.677Z,101254.58
2019-04-16T07:31:45.401Z,101251.47
2019-04-16T07:33:00.685Z,101254.00
2019-04-16T07:34:22.328Z,101266.30
2019-04-16T07:35:55.367Z,101258.84
2019-04-16T07:37:09.127Z,101263.63
2019-04-16T07:38:18.672Z,101262.00
2019-04-16T07:39:55.134Z,101261.91
2019-04-16T07:41:17.522Z,101266.61
2019-04-16T07:42:30.641Z,101252.62
2019-04-16T07:43:53.122Z,101256.83
2019-04-16T07:45:35.586Z,101253.34
2019-04-16T07:46:57.440Z,101245.80
2019-04-16T07:48:09.437Z,101257.89
2019-04-16T07:49:36.104Z,101245.16
2019-04-16T07:51:05.565Z,101241.92
2019-04-16T07:52:27.753Z,101247.93
2019-04-16T07:53:39.817Z,101244.52
2019-04-16T07:55:09.904Z,101241.50
2019-04-16T07:56:18.355Z,101235.50
2019-04-16T07:57:23.098Z,101231.80
2019-04-16T07:58:28.054Z,101236.72
2019-04-16T07:59:33.090Z,101247.41
2019-04-16T08:00:41.418Z,101242.25
2019-04-16T08:01:47.727Z,101244.71
2019-04-16T08:02:53.667Z,101239.04
2019-04-16T08:04:01.395Z,101239.59
2019-04-16T08:05:07.778Z,101235.42
2019-04-16T08:06:14.379Z,101236.45
2019-04-16T08:07:20.082Z,101237.95
2019-04-16T08:08:24.728Z,101232.06
2019-04-16T08:09:33.580Z,101239.50
2019-04-16T08:10:37.573Z,101240.70
2019-04-16T08:11:42.290Z,101233.96
2019-04-16T08:12:50.990Z,101246.96
2019-04-16T08:13:55.367Z,101246.72
2019-04-16T08:15:12.866Z,101250.59
2019-04-16T08:16:07.078Z,101246.37
2019-04-16T08:17:12.046Z,101241.17
2019-04-16T08:18:17.203Z,101248.55
2019-04-16T08:19:36.276Z,101246.65
2019-04-16T08:20:30.901Z,101247.31
2019-04-16T08:21:35.612Z,101243.91
2019-04-16T08:22:40.281Z,101237.47
2019-04-16T08:23:51.535Z,101243.95
2019-04-16T08:25:03.299Z,101234.27
2019-04-16T08:26:11.522Z,101228.46
2019-04-16T08:27:18.058Z,101227.99
2019-04-16T08:28:19.884Z,101209.86
2019-04-16T08:29:26.483Z,101201.47
2019-04-16T08:30:34.555Z,101213.71
2019-04-16T08:31:44.482Z,101197.71
2019-04-16T08:32:49.678Z,101199.19
2019-04-16T08:33:55.731Z,101209.78
2019-04-16T08:35:00.770Z,101203.82
2019-04-16T08:36:05.462Z,101189.71
2019-04-16T08:37:10.396Z,101186.25
2019-04-16T08:38:15.360Z,101184.77
2019-04-16T08:39:20.577Z,101185.34
2019-04-16T08:40:25.758Z,101182.30
2019-04-16T08:41:30.230Z,101184.93
2019-04-16T08:42:44.448Z,101169.30
2019-04-16T08:43:42.236Z,101158.33
2019-04-16T08:44:47.479Z,101155.56
2019-04-16T08:45:52.606Z,101157.25
2019-04-16T08:46:59.048Z,101139.31
2019-04-16T08:48:03.851Z,101131.40
2019-04-16T08:49:09.506Z,101117.78
2019-04-16T08:50:15.016Z,101105.47
2019-04-16T08:51:30.351Z,101095.16
2019-04-16T08:52:26.710Z,101090.59
2019-04-16T08:53:31.676Z,101084.70
2019-04-16T08:54:36.884Z,101083.59
2019-04-16T08:55:42.086Z,101082.28
2019-04-16T08:56:47.044Z,101070.73
2019-04-16T08:57:51.769Z,101071.92
2019-04-16T08:59:00.643Z,101067.80
2019-04-16T09:00:03.700Z,101065.31
2019-04-16T09:01:09.209Z,101058.34
2019-04-16T09:02:13.886Z,101055.80
2019-04-16T09:03:18.638Z,101048.61
2019-04-16T09:04:23.841Z,101046.33
2019-04-16T09:05:28.999Z,101047.33
2019-04-16T09:06:33.947Z,101031.00
2019-04-16T09:07:41.380Z,101042.62
2019-04-16T09:09:24.430Z,101040.41
2019-04-16T09:10:30.140Z,101039.91
2019-04-16T09:11:35.454Z,101048.22
2019-04-16T09:12:44.942Z,101034.70
2019-04-16T09:13:50.011Z,101035.77
2019-04-16T09:14:56.363Z,101034.15
2019-04-16T09:16:02.533Z,101040.22
2019-04-16T09:17:16.151Z,101041.66
2019-04-16T09:18:35.223Z,101046.45
2019-04-16T09:19:42.240Z,101034.26
2019-04-16T09:20:47.520Z,101041.03
2019-04-16T09:21:53.934Z,101043.81
2019-04-16T09:22:59.307Z,101039.67
2019-04-16T09:24:21.449Z,101043.64
2019-04-16T09:25:47.570Z,101042.36
2019-04-16T09:27:05.018Z,101046.02
2019-04-16T09:28:25.944Z,101048.41
2019-04-16T09:29:51.039Z,101062.27
2019-04-16T09:31:23.799Z,101070.12
2019-04-16T09:32:44.318Z,101107.38
2019-04-16T09:34:11.279Z,101077.56
2019-04-16T09:35:26.080Z,101080.27
2019-04-16T09:36:47.948Z,101082.72
2019-04-16T09:37:57.683Z,101091.67
2019-04-16T09:39:15.805Z,101098.34
2019-04-16T09:40:38.345Z,101098.36
2019-04-16T09:41:45.947Z,101100.50
2019-04-16T09:42:51.105Z,101118.18
2019-04-16T09:43:59.856Z,101116.30
2019-04-16T09:45:05.800Z,101121.16
2019-04-16T09:46:17.510Z,101119.45
2019-04-16T09:47:17.036Z,101118.16
2019-04-16T09:48:21.954Z,101135.25
2019-04-16T09:49:26.905Z,101127.95
2019-04-16T09:50:32.191Z,101133.09
2019-04-16T09:51:37.124Z,101139.73
2019-04-16T09:52:42.075Z,101147.50
2019-04-16T09:53:47.037Z,101153.62
2019-04-16T09:54:51.781Z,101158.69
2019-04-16T09:55:57.009Z,101168.64
2019-04-16T09:57:02.828Z,101162.23
2019-04-16T09:58:16.238Z,101161.86
2019-04-16T09:59:34.343Z,101167.31
2019-04-16T10:00:39.312Z,101151.03
2019-04-16T10:01:49.047Z,101168.20
2019-04-16T10:02:55.258Z,101170.42
2019-04-16T10:03:59.702Z,101167.38
2019-04-16T10:05:04.760Z,101165.72
2019-04-16T10:06:10.208Z,101162.75
2019-04-16T10:07:15.586Z,101166.92
2019-04-16T10:08:20.801Z,101167.50
2019-04-16T10:09:26.301Z,101181.05
2019-04-16T10:10:31.534Z,101184.80
2019-04-16T10:11:36.490Z,101181.73
2019-04-16T10:12:41.536Z,101179.14
2019-04-16T10:13:46.314Z,101175.96
2019-04-16T10:14:51.253Z,101178.58
2019-04-16T10:15:56.480Z,101170.45
2019-04-16T10:17:01.714Z,101168.73
2019-04-16T10:18:06.657Z,101170.09
2019-04-16T10:19:12.677Z,101171.23
2019-04-16T10:20:18.235Z,101171.80
2019-04-16T10:21:23.388Z,101170.03
2019-04-16T10:22:28.103Z,101169.69
2019-04-16T10:23:38.208Z,101164.52
2019-04-16T10:25:17.570Z,101168.03
2019-04-16T10:26:22.920Z,101170.70
2019-04-16T10:27:41.214Z,101170.13
2019-04-16T10:28:46.336Z,101171.06
2019-04-16T10:29:51.316Z,101162.20
2019-04-16T10:30:57.353Z,101154.92
2019-04-16T10:32:02.096Z,101150.69
2019-04-16T10:33:07.295Z,101155.72
2019-04-16T10:34:12.251Z,101158.28
2019-04-16T10:35:16.923Z,101152.06
2019-04-16T10:36:22.886Z,101146.33
2019-04-16T10:37:28.424Z,101144.97
2019-04-16T10:38:51.007Z,101140.66
2019-04-16T10:40:04.875Z,101145.04
2019-04-16T10:41:16.551Z,101140.90
2019-04-16T10:42:39.212Z,101144.31
2019-04-16T10:44:08.838Z,101140.57
2019-04-16T10:45:39.289Z,101143.48
2019-04-16T10:46:49.648Z,101138.73
2019-04-16T10:48:12.039Z,101137.33
2019-04-16T10:49:36.155Z,101129.11
2019-04-16T10:50:46.837Z,101132.75
2019-04-16T10:52:03.845Z,101135.83
2019-04-16T10:53:24.697Z,101136.43
2019-04-16T10:54:43.439Z,101133.09
2019-04-16T10:56:20.746Z,101135.70
2019-04-16T10:57:40.270Z,101121.06
2019-04-16T10:58:57.600Z,101129.53
2019-04-16T11:00:20.950Z,101134.69
2019-04-16T11:01:47.898Z,101132.80
2019-04-16T11:02:57.901Z,101120.14
2019-04-16T11:04:33.923Z,101123.67
2019-04-16T11:05:44.320Z,101126.27
2019-04-16T11:06:50.004Z,101116.91
2019-04-16T11:07:55.586Z,101117.33
2019-04-16T11:09:00.875Z,101121.71
2019-04-16T11:10:06.008Z,101113.92
2019-04-16T11:11:10.728Z,101116.76
2019-04-16T11:12:15.958Z,101109.64
2019-04-16T11:13:33.107Z,101120.13
2019-04-16T11:14:37.842Z,101114.28
2019-04-16T11:15:43.165Z,101109.50
2019-04-16T11:16:50.463Z,101115.41
2019-04-16T11:17:55.733Z,101108.58
2019-04-16T11:19:01.028Z,101109.33
2019-04-16T11:20:06.322Z,101115.20
2019-04-16T11:21:11.516Z,101116.30
2019-04-16T11:22:16.578Z,101115.63
2019-04-16T11:23:21.359Z,101114.05
2019-04-16T11:24:26.092Z,101115.13
2019-04-16T11:25:31.001Z,101114.58
2019-04-16T11:26:35.976Z,101126.77
2019-04-16T11:27:40.993Z,101115.02
2019-04-16T11:28:45.947Z,101139.13
2019-04-16T11:29:50.717Z,101115.86
2019-04-16T11:30:56.776Z,101126.34
2019-04-16T11:32:01.690Z,101116.39
2019-04-16T11:33:06.106Z,101121.84
2019-04-16T11:34:12.094Z,101111.77
2019-04-16T11:35:18.869Z,101125.13
2019-04-16T11:36:23.753Z,101123.69
2019-04-16T11:37:28.452Z,101122.92
2019-04-16T11:38:33.475Z,101127.97
2019-04-16T11:39:38.126Z,101127.55
2019-04-16T11:40:42.880Z,101123.89
2019-04-16T11:41:48.549Z,101137.63
2019-04-16T11:42:53.384Z,101130.09
2019-04-16T11:44:13.512Z,101131.42
2019-04-16T11:45:05.626Z,101126.72
2019-04-16T11:46:11.122Z,101126.07
2019-04-16T11:47:16.367Z,101128.98
2019-04-16T11:48:21.307Z,101130.95
2019-04-16T11:49:26.282Z,101121.70
2019-04-16T11:50:31.484Z,101122.66
2019-04-16T11:51:36.351Z,101116.22
2019-04-16T11:52:41.433Z,101125.70
2019-04-16T11:53:46.385Z,101122.45
2019-04-16T11:54:51.094Z,101121.81
2019-04-16T11:55:56.342Z,101124.48
2019-04-16T11:57:01.563Z,101117.56
2019-04-16T11:58:10.526Z,101130.02
2019-04-16T11:59:15.230Z,101125.05
2019-04-16T12:00:39.006Z,101123.73
2019-04-16T12:01:51.846Z,101132.12
2019-04-16T12:03:08.245Z,101131.99
2019-04-16T12:04:31.651Z,101129.93
2019-04-16T12:05:50.179Z,101127.05
2019-04-16T12:07:06.488Z,101125.45
2019-04-16T12:08:32.764Z,101134.05
2019-04-16T12:09:55.278Z,101125.45
2019-04-16T12:11:17.568Z,101134.20
2019-04-16T12:12:25.908Z,101138.22
2019-04-16T12:13:44.551Z,101137.44
2019-04-16T12:15:07.580Z,101136.73
2019-04-16T12:16:21.189Z,101134.57
2019-04-16T12:17:36.298Z,101138.47
2019-04-16T12:19:14.354Z,101138.08
2019-04-16T12:20:36.631Z,101136.64
2019-04-16T12:21:58.534Z,101140.77
2019-04-16T12:23:21.305Z,101139.48
2019-04-16T12:24:38.110Z,101139.42
2019-04-16T12:26:08.740Z,101141.15
2019-04-16T12:27:21.656Z,101139.27
2019-04-16T12:28:54.965Z,101141.64
2019-04-16T12:30:17.701Z,101141.04
2019-04-16T12:31:47.600Z,101129.42
2019-04-16T12:33:00.790Z,101124.52
2019-04-16T12:34:36.843Z,101147.05
2019-04-16T12:35:56.571Z,101132.03
2019-04-16T12:37:24.650Z,101135.34
2019-04-16T12:38:36.310Z,101136.19
2019-04-16T12:39:53.083Z,101129.63
2019-04-16T12:41:06.472Z,101126.44
2019-04-16T12:42:18.594Z,101133.03
2019-04-16T12:43:30.806Z,101143.47
2019-04-16T12:44:45.945Z,101135.63
2019-04-16T12:46:01.158Z,101127.06
2019-04-16T12:47:08.537Z,101126.08
2019-04-16T12:48:24.973Z,101122.47
2019-04-16T12:49:47.734Z,101130.10
2019-04-16T12:51:17.543Z,101131.41
2019-04-16T12:52:32.018Z,101135.77
2019-04-16T12:53:52.990Z,101133.20
2019-04-16T12:55:12.721Z,101133.42
2019-04-16T12:56:41.155Z,101131.78
2019-04-16T12:57:59.004Z,101139.84
2019-04-16T12:59:12.670Z,101131.02
2019-04-16T13:00:31.291Z,101133.62
2019-04-16T13:01:48.196Z,101128.17
2019-04-16T13:03:20.926Z,101137.73
2019-04-16T13:04:48.725Z,101141.85
2019-04-16T13:06:26.991Z,101138.36
2019-04-16T13:07:48.261Z,101142.45
2019-04-16T13:09:14.668Z,101134.84
2019-04-16T13:10:30.779Z,101124.08
2019-04-16T13:11:40.889Z,101135.56
2019-04-16T13:13:04.709Z,101134.31
2019-04-16T13:14:27.584Z,101129.50
2019-04-16T13:16:00.047Z,101132.70
2019-04-16T13:17:15.156Z,101141.31
2019-04-16T13:18:39.987Z,101132.47
2019-04-16T13:19:54.904Z,101137.66
2019-04-16T13:21:20.309Z,101138.24
2019-04-16T13:22:28.818Z,101137.00